Date,TemperatureHighF,TemperatureAvgF,TemperatureLowF,DewpointHighF,DewpointAvgF,DewpointLowF,HumidityHigh,HumidityAvg,HumidityLow,PressureMaxIn,PressureMinIn,WindSpeedMaxMPH,WindSpeedAvgMPH,GustSpeedMaxMPH,PrecipitationSumIn
2013-2-20,32,28,26,26,23,21,90,83,69,30.12,30.04,0,0,5,0.00
2013-2-21,32,25,16,29,23,14,96,93,83,30.07,29.74,1,0,13,0.00
2013-2-22,58,18,10,21,-1,-100,90,66,18,30.21,29.99,0,-130,4,0.01
2013-2-23,55,28,12,37,20,9,98,76,35,30.19,29.91,0,0,4,0.00
2013-2-24,64,37,26,37,27,-100,84,71,35,29.98,29.74,0,-8,4,0.00
2013-2-25,36,34,32,33,32,29,99,92,82,29.93,29.70,2,0,12,0.11
2013-2-26,50,33,27,34,30,26,99,89,50,29.99,29.75,0,0,3,0.18
2013-2-27,48,35,28,30,28,25,94,76,48,30.18,29.97,0,0,8,0.01
2013-3-6,42,39,37,24,23,22,57,52,46,30.23,30.21,0,0,0,0.00
2013-3-7,72,50,35,27,25,21,68,44,16,30.22,29.93,1,0,15,0.00
2013-4-23,34,33,33,31,31,30,93,90,83,30.00,29.97,2,0,6,0.00
2013-4-24,63,46,29,34,30,27,94,61,27,30.04,29.95,6,1,10,0.01
2013-4-25,74,60,42,43,36,33,79,43,24,30.04,29.78,8,2,12,0.00
2013-4-26,61,54,51,51,47,34,96,81,36,29.89,29.81,11,2,13,0.28
2013-4-27,70,56,50,56,51,49,100,86,59,29.89,29.77,4,0,5,0.00
2013-4-28,84,65,48,60,54,48,100,71,37,29.77,29.54,6,1,11,0.07
2013-4-29,91,74,59,62,57,52,93,58,32,29.54,29.38,11,3,12,0.00
2013-4-30,89,76,64,62,57,52,78,53,34,29.55,29.43,11,4,14,0.24
2013-5-1,79,62,41,63,52,36,85,71,52,29.99,29.50,8,3,11,0.00
2013-5-2,53,42,35,39,34,29,100,78,41,30.17,29.96,11,4,11,0.64
2013-5-3,64,49,36,34,31,27,82,53,26,30.09,29.75,8,2,10,0.00
2013-5-4,50,45,43,42,36,30,87,72,54,29.85,29.67,10,3,13,0.00
2013-5-5,65,52,43,52,46,41,95,82,60,29.91,29.83,4,1,8,0.00
2013-5-6,74,57,45,54,49,44,100,79,48,29.90,29.77,4,0,5,0.00
2013-5-7,66,56,51,56,52,49,93,85,67,29.83,29.78,6,0,7,0.00
2013-5-8,80,70,62,64,59,54,88,71,57,29.70,29.54,7,1,10,0.09
2013-5-9,81,68,58,61,58,55,96,72,46,29.76,29.56,8,1,16,0.07
2013-5-10,78,64,55,58,54,50,93,72,44,29.85,29.75,4,1,8,0.00
2013-5-11,76,63,52,55,44,33,93,58,25,30.02,29.85,11,1,11,0.00
2013-5-12,76,60,47,46,40,30,82,50,26,30.02,29.83,8,2,11,0.00
2013-5-13,91,62,52,53,46,44,74,58,27,29.86,29.75,4,0,6,0.00
2013-10-30,76,72,69,70,69,68,99,92,81,29.81,29.68,12,2,12,0.00
2013-10-31,73,52,48,54,49,42,99,92,37,29.71,29.54,10,1,10,0.00
2013-11-1,55,46,41,44,41,39,95,83,67,29.85,29.70,4,0,4,0.00
2013-11-2,73,47,40,40,36,27,79,69,19,30.23,30.05,5,0,5,0.00
2013-11-3,69,54,45,43,37,32,68,54,32,30.08,29.77,17,4,17,0.00
2013-11-4,74,58,50,54,46,42,84,68,33,30.00,29.75,14,2,14,0.00
2013-11-5,61,56,41,61,55,40,99,96,85,30.01,29.78,12,2,12,0.00
2013-11-6,60,42,36,40,36,34,94,81,46,30.26,30.01,11,2,11,0.00
2013-11-7,75,47,33,44,37,32,99,73,25,30.37,30.22,4,0,4,0.00
2013-11-8,72,55,44,38,36,27,79,52,21,30.22,29.81,23,4,23,0.00
2013-11-9,78,55,43,46,41,37,84,61,27,30.21,29.93,1,0,1,0.00
2013-11-10,74,54,43,51,44,37,93,71,35,30.30,30.16,10,0,10,0.00
2013-11-11,59,50,31,54,45,19,92,83,63,30.56,30.09,11,2,11,0.00
2013-11-12,50,31,22,19,15,5,78,54,18,30.78,30.55,11,0,11,0.00
2013-11-13,58,38,24,25,19,15,78,50,25,30.59,30.10,14,2,14,0.00
2013-11-14,63,46,36,33,29,20,67,52,29,30.10,29.87,14,2,14,0.00
2013-11-15,69,51,38,50,41,32,87,69,39,29.89,29.61,14,1,14,0.00
2013-11-16,82,66,54,58,55,50,91,70,36,29.61,29.36,17,6,17,0.00
2013-11-17,74,59,48,51,29,4,69,37,10,30.05,29.36,16,2,16,0.00
2013-11-18,73,50,33,33,24,10,84,42,10,30.22,28.80,5,0,5,0.00
2013-11-19,67,53,45,36,29,26,58,41,24,30.15,29.82,20,4,20,0.00
2013-11-20,65,56,52,50,40,28,73,56,39,29.85,29.73,14,4,14,0.00
2013-11-21,55,36,26,53,34,21,99,92,71,30.41,29.83,16,6,16,0.00
2013-11-22,27,25,24,21,19,17,82,78,71,30.56,30.41,14,3,14,0.00
2013-11-23,41,32,21,21,17,11,66,53,39,30.66,30.50,9,0,9,0.00
2013-11-24,30,24,19,14,12,8,70,58,40,30.62,30.21,0,0,0,0.00
2013-11-25,38,31,26,28,22,13,92,71,53,30.21,30.11,1,0,1,0.00
2013-11-26,47,32,24,27,20,11,92,64,36,30.37,30.13,13,1,13,0.00
2013-11-27,46,29,15,20,14,9,81,57,27,30.37,30.10,6,0,6,0.00
2013-11-28,60,38,25,30,24,20,84,60,29,30.34,30.07,0,0,0,0.00
2013-11-29,62,42,27,33,27,20,83,58,29,30.34,30.09,13,0,13,0.00
2013-11-30,71,42,32,38,33,30,93,74,27,30.11,30.01,8,0,8,0.00
2013-12-1,73,45,30,42,35,29,98,74,27,30.05,29.81,0,0,0,0.00
2013-12-2,66,44,33,44,37,32,99,81,40,29.81,29.57,0,0,0,0.00
2013-12-3,72,42,35,50,40,35,99,92,38,29.55,29.42,0,0,0,0.00
2013-12-4,45,35,26,44,33,18,99,92,72,29.89,29.46,14,2,14,0.00